Time;durP1;ratioP1;P1;durP2;ratioP2;P2;SDS_P1;SDS_P2;PMS_P1;PMS_P2;Temp;Humidity;BMP_temperature;BMP_pressure;BME280_temperature;BME280_humidity;BME280_pressure;Samples;Min_cycle;Max_cycle;Signal;HPM_P1;HPM_P2
2023/10/31 00:00:11;;;;;;;4.53;3.17;;;;;;;11.59;100.00;99463.72;7401212;19;19982;-81
2023/10/31 00:02:43;;;;;;;6.88;3.40;;;;;;;11.56;100.00;99464.94;7400590;19;20010;-81
2023/10/31 00:05:11;;;;;;;4.35;2.75;;;;;;;11.55;100.00;99457.94;7395437;19;19933;-81
2023/10/31 00:07:40;;;;;;;4.82;2.22;;;;;;;11.53;100.00;99460.00;7396434;19;19945;-81
2023/10/31 00:10:09;;;;;;;5.50;2.13;;;;;;;11.49;100.00;99456.09;7397325;19;19919;-81
2023/10/31 00:12:38;;;;;;;5.32;2.10;;;;;;;11.47;100.00;99454.66;7398800;19;19933;-81
2023/10/31 00:15:08;;;;;;;6.45;2.20;;;;;;;11.47;100.00;99460.06;7399673;19;19938;-81
2023/10/31 00:17:36;;;;;;;4.80;2.42;;;;;;;11.46;100.00;99466.50;7398342;19;19918;-81
2023/10/31 00:20:09;;;;;;;4.78;1.92;;;;;;;11.45;100.00;99462.13;7400024;19;19923;-81
2023/10/31 00:22:38;;;;;;;3.45;2.00;;;;;;;11.44;100.00;99453.22;7400572;19;20209;-82
2023/10/31 00:25:07;;;;;;;3.88;2.22;;;;;;;11.43;100.00;99446.19;7400446;19;19930;-82
2023/10/31 00:27:36;;;;;;;6.10;2.15;;;;;;;11.42;100.00;99446.41;7399620;19;20036;-82
2023/10/31 00:30:06;;;;;;;6.05;2.88;;;;;;;11.42;100.00;99444.53;7399653;19;19941;-82
2023/10/31 00:32:41;;;;;;;5.47;2.50;;;;;;;11.41;100.00;99439.34;7395179;19;19923;-82
2023/10/31 00:35:14;;;;;;;5.82;3.63;;;;;;;11.41;100.00;99442.03;7399105;19;19919;-82
2023/10/31 00:37:43;;;;;;;6.05;2.75;;;;;;;11.37;100.00;99445.19;7394638;19;19918;-82
2023/10/31 00:40:13;;;;;;;6.82;3.42;;;;;;;11.37;100.00;99438.97;7398995;19;19953;-82
2023/10/31 00:42:42;;;;;;;4.60;2.53;;;;;;;11.36;100.00;99437.28;7398503;19;19919;-81
2023/10/31 00:45:12;;;;;;;4.65;2.40;;;;;;;11.35;100.00;99438.34;7394094;19;19915;-81
2023/10/31 00:47:40;;;;;;;6.40;1.58;;;;;;;11.32;100.00;99439.59;7397797;19;19923;-82
2023/10/31 00:50:13;;;;;;;4.25;1.70;;;;;;;11.30;100.00;99441.69;7395893;19;19922;-81
2023/10/31 00:52:41;;;;;;;3.45;1.27;;;;;;;11.28;100.00;99443.78;7397914;19;20293;-81
2023/10/31 00:55:10;;;;;;;3.35;1.10;;;;;;;11.27;100.00;99441.28;7396555;19;19931;-82
2023/10/31 00:57:39;;;;;;;3.08;1.15;;;;;;;11.24;100.00;99434.47;7395013;19;19927;-82
2023/10/31 01:00:10;;;;;;;4.55;0.95;;;;;;;11.23;100.00;99431.97;7392294;19;19936;-82
2023/10/31 01:02:39;;;;;;;4.57;1.00;;;;;;;11.20;100.00;99433.25;7390656;19;19921;-82
2023/10/31 01:05:08;;;;;;;4.38;1.25;;;;;;;11.19;100.00;99436.16;7397547;19;19933;-82
2023/10/31 01:07:39;;;;;;;5.32;1.08;;;;;;;11.17;100.00;99439.09;7398320;19;19930;-82
2023/10/31 01:10:10;;;;;;;4.78;1.50;;;;;;;11.17;100.00;99432.88;7395890;19;19922;-82
2023/10/31 01:12:39;;;;;;;2.85;1.02;;;;;;;11.16;100.00;99439.28;7396643;19;19922;-82
2023/10/31 01:15:08;;;;;;;4.18;1.10;;;;;;;11.15;100.00;99434.94;7396536;19;19943;-82
2023/10/31 01:17:37;;;;;;;3.10;1.17;;;;;;;11.13;100.00;99423.56;7398959;19;20315;-82
2023/10/31 01:20:07;;;;;;;4.18;1.27;;;;;;;11.12;100.00;99424.59;7400661;19;19923;-82
2023/10/31 01:22:35;;;;;;;5.00;1.60;;;;;;;11.13;100.00;99420.88;7401577;19;20390;-82
2023/10/31 01:25:07;;;;;;;4.95;1.10;;;;;;;11.11;100.00;99421.06;7399655;19;19918;-82
2023/10/31 01:27:36;;;;;;;;;;;;;;;10.96;100.00;99417.03;7405137;19;20398;-82
2023/10/31 01:30:04;;;;;;;7.90;1.30;;;;;;;11.07;100.00;99417.16;7400710;19;19923;-82
2023/10/31 01:32:33;;;;;;;4.65;1.50;;;;;;;11.08;100.00;99413.44;7398292;19;19923;-82
2023/10/31 01:35:03;;;;;;;2.55;1.30;;;;;;;11.10;100.00;99415.88;7401778;19;19950;-82
2023/10/31 01:37:33;;;;;;;4.00;2.00;;;;;;;11.07;100.00;99410.94;7402679;19;19918;-82
2023/10/31 01:40:01;;;;;;;4.35;2.10;;;;;;;11.04;100.00;99414.06;7398199;19;19922;-82
2023/10/31 01:42:33;;;;;;;7.78;2.10;;;;;;;11.04;100.00;99422.97;7400092;19;19922;-82
2023/10/31 01:45:01;;;;;;;4.30;2.22;;;;;;;11.04;100.00;99422.97;7402001;19;19934;-82
2023/10/31 01:47:30;;;;;;;7.15;2.03;;;;;;;11.02;100.00;99433.13;7399947;19;19979;-82
2023/10/31 01:49:59;;;;;;;6.03;2.97;;;;;;;10.93;100.00;99431.72;7402778;19;19926;-82
2023/10/31 01:52:27;;;;;;;4.35;1.40;;;;;;;10.84;100.00;99433.00;7405763;19;19946;-81
2023/10/31 01:54:57;;;;;;;4.03;1.20;;;;;;;10.78;100.00;99434.72;7404436;19;19922;-80
2023/10/31 01:57:25;;;;;;;3.15;1.35;;;;;;;10.74;100.00;99435.34;7400286;19;19922;-80
2023/10/31 01:59:57;;;;;;;2.22;0.90;;;;;;;10.73;100.00;99429.13;7395621;19;19942;-80
2023/10/31 02:02:26;;;;;;;1.75;1.20;;;;;;;10.71;100.00;99424.97;7397565;19;19923;-80
2023/10/31 02:04:55;;;;;;;1.73;1.27;;;;;;;10.68;100.00;99423.56;7398952;19;20431;-80
2023/10/31 02:07:23;;;;;;;2.92;1.00;;;;;;;10.67;100.00;99415.66;7398143;19;19918;-80
2023/10/31 02:09:52;;;;;;;3.30;1.60;;;;;;;10.66;100.00;99425.63;7397933;19;19951;-81
2023/10/31 02:12:36;;;;;;;6.30;2.53;;;;;;;10.59;100.00;99429.38;7400458;19;19926;-81
2023/10/31 02:15:09;;;;;;;3.25;1.65;;;;;;;10.56;100.00;99422.56;7400370;19;19930;-81
2023/10/31 02:17:37;;;;;;;2.22;1.40;;;;;;;10.50;100.00;99427.94;7399407;19;19922;-80
2023/10/31 02:20:07;;;;;;;3.70;1.15;;;;;;;10.50;100.00;99420.69;7400123;19;19922;-80
2023/10/31 02:22:38;;;;;;;3.92;1.38;;;;;;;10.46;100.00;99427.56;7401366;19;19941;-81
2023/10/31 02:25:18;;;;;;;3.03;1.58;;;;;;;10.43;100.00;99425.28;7396211;19;19923;-81
2023/10/31 02:27:47;;;;;;;2.85;1.30;;;;;;;10.42;100.00;99429.00;7394371;19;19926;-81
2023/10/31 02:30:16;;;;;;;2.03;0.95;;;;;;;10.38;100.00;99428.63;7398377;19;19923;-81
2023/10/31 02:32:45;;;;;;;3.00;1.20;;;;;;;10.34;100.00;99431.94;7398248;19;20535;-81
2023/10/31 02:35:15;;;;;;;2.53;0.45;;;;;;;10.29;100.00;99442.50;7399811;19;19922;-81
2023/10/31 02:37:47;;;;;;;1.60;0.50;;;;;;;10.26;100.00;99441.06;7397439;19;19919;-81
2023/10/31 02:40:16;;;;;;;3.53;0.60;;;;;;;10.24;100.00;99447.69;7397759;19;19926;-81
2023/10/31 02:42:44;;;;;;;1.92;0.40;;;;;;;10.23;100.00;99437.94;7395923;19;19935;-80
2023/10/31 02:45:13;;;;;;;0.68;0.20;;;;;;;10.18;100.00;99438.56;7394385;19;19945;-81
2023/10/31 02:47:42;;;;;;;1.85;0.22;;;;;;;10.16;100.00;99435.28;7394823;19;19950;-81
2023/10/31 02:50:11;;;;;;;1.95;0.40;;;;;;;10.14;100.00;99428.44;7398641;19;19959;-80
2023/10/31 02:52:39;;;;;;;1.05;0.20;;;;;;;10.12;100.00;99443.94;7397759;19;19926;-80
2023/10/31 02:55:11;;;;;;;2.70;0.30;;;;;;;10.10;100.00;99435.25;7400184;19;19946;-81
2023/10/31 02:57:39;;;;;;;3.33;0.50;;;;;;;10.09;100.00;99439.00;7401252;19;19926;-81
2023/10/31 03:00:09;;;;;;;2.65;0.40;;;;;;;10.09;100.00;99444.38;7395013;19;20265;-80
2023/10/31 03:02:38;;;;;;;3.65;0.57;;;;;;;10.07;100.00;99443.75;7399480;19;19930;-82
2023/10/31 03:05:07;;;;;;;2.53;0.40;;;;;;;10.05;100.00;99438.59;7396653;19;19964;-81
2023/10/31 03:07:36;;;;;;;3.30;0.82;;;;;;;10.05;100.00;99445.81;7392382;19;19943;-81
2023/10/31 03:10:05;;;;;;;1.48;0.60;;;;;;;10.03;100.00;99441.47;7398107;19;19942;-81
2023/10/31 03:12:36;;;;;;;2.40;0.95;;;;;;;10.03;100.00;99448.72;7398108;19;19953;-81
2023/10/31 03:15:05;;;;;;;1.75;0.77;;;;;;;10.01;100.00;99448.91;7396286;19;19922;-81
2023/10/31 03:17:33;;;;;;;5.13;0.70;;;;;;;10.02;100.00;99453.25;7398006;19;20373;-80
2023/10/31 03:20:02;;;;;;;1.00;0.60;;;;;;;9.98;100.00;99452.03;7394178;19;20341;-81
2023/10/31 03:22:31;;;;;;;2.30;0.77;;;;;;;9.98;100.00;99457.41;7397548;19;19925;-81
2023/10/31 03:24:59;;;;;;;2.78;1.17;;;;;;;9.98;100.00;99465.47;7395078;19;19957;-81
2023/10/31 03:27:28;;;;;;;3.08;0.80;;;;;;;9.97;100.00;99457.59;7398097;19;19963;-80
2023/10/31 03:29:59;;;;;;;1.48;0.70;;;;;;;9.94;100.00;99468.78;7396681;19;19922;-81
2023/10/31 03:32:27;;;;;;;2.38;0.63;;;;;;;9.91;100.00;99469.22;7397225;19;19923;-80
2023/10/31 03:34:56;;;;;;;1.95;0.77;;;;;;;9.90;100.00;99483.69;7397188;19;20047;-80
2023/10/31 03:37:24;;;;;;;3.97;0.60;;;;;;;9.89;100.00;99474.78;7397438;19;19918;-80
2023/10/31 03:39:54;;;;;;;1.73;0.90;;;;;;;9.89;100.00;99476.66;7398413;19;19921;-81
2023/10/31 03:42:22;;;;;;;5.18;0.90;;;;;;;9.86;100.00;99483.28;7396214;19;19935;-81
2023/10/31 03:44:51;;;;;;;1.50;0.38;;;;;;;9.83;100.00;99483.69;7399794;19;19914;-80
2023/10/31 03:47:22;;;;;;;1.40;0.50;;;;;;;9.82;100.00;99490.09;7397898;19;19922;-81
2023/10/31 03:49:50;;;;;;;3.08;0.77;;;;;;;9.78;100.00;99499.63;7398596;19;19962;-81
2023/10/31 03:52:19;;;;;;;2.17;0.50;;;;;;;9.79;100.00;99503.97;7397479;19;20341;-81
2023/10/31 03:54:48;;;;;;;3.17;0.70;;;;;;;9.77;100.00;99514.09;7397805;19;19922;-81
2023/10/31 03:57:16;;;;;;;2.90;0.52;;;;;;;9.77;100.00;99515.94;7394095;19;20493;-81
2023/10/31 03:59:45;;;;;;;1.48;0.75;;;;;;;9.76;100.00;99519.66;7396397;19;19931;-81
2023/10/31 04:02:14;;;;;;;3.92;0.63;;;;;;;9.76;100.00;99525.88;7398938;19;19951;-81
2023/10/31 04:04:45;;;;;;;1.48;0.52;;;;;;;9.76;100.00;99528.56;7395010;19;19931;-81
2023/10/31 04:07:13;;;;;;;2.58;0.52;;;;;;;9.80;100.00;99531.66;7395334;19;19945;-81
2023/10/31 04:09:43;;;;;;;3.22;0.45;;;;;;;9.81;100.00;99536.03;7394897;19;19918;-81
2023/10/31 04:12:12;;;;;;;2.55;0.75;;;;;;;9.80;100.00;99540.56;7392875;19;19929;-81
2023/10/31 04:14:41;;;;;;;3.38;0.95;;;;;;;9.79;100.00;99547.00;7395612;19;20276;-81
2023/10/31 04:17:09;;;;;;;1.48;0.50;;;;;;;9.82;100.00;99545.75;7395365;19;19918;-81
2023/10/31 04:19:39;;;;;;;3.35;0.75;;;;;;;9.82;100.00;99549.28;7396220;19;19923;-81
2023/10/31 04:22:11;;;;;;;3.47;0.80;;;;;;;9.84;100.00;99555.25;7394299;19;20359;-82
2023/10/31 04:24:39;;;;;;;2.30;0.88;;;;;;;9.85;100.00;99554.25;7396781;19;19927;-81
2023/10/31 04:27:08;;;;;;;4.20;0.93;;;;;;;9.86;100.00;99555.91;7397245;19;19927;-81
2023/10/31 04:29:36;;;;;;;2.78;1.15;;;;;;;9.85;100.00;99570.38;7395721;19;19926;-81
2023/10/31 04:32:05;;;;;;;2.95;1.00;;;;;;;9.85;100.00;99580.31;7397285;19;19931;-81
2023/10/31 04:34:34;;;;;;;3.38;1.15;;;;;;;9.84;100.00;99570.56;7395591;19;20280;-81
2023/10/31 04:37:02;;;;;;;1.70;0.75;;;;;;;9.82;100.00;99586.09;7394819;19;20933;-81
2023/10/31 04:39:33;;;;;;;3.67;0.90;;;;;;;9.82;100.00;99580.72;7396614;19;19942;-82
2023/10/31 04:42:03;;;;;;;3.45;1.35;;;;;;;9.81;100.00;99593.34;7397629;19;19914;-81
2023/10/31 04:44:31;;;;;;;4.05;1.02;;;;;;;9.81;100.00;99592.50;7395418;19;19930;-81
2023/10/31 04:47:00;;;;;;;3.65;1.58;;;;;;;9.80;100.00;99588.97;7398423;19;19939;-81
2023/10/31 04:49:28;;;;;;;2.83;1.40;;;;;;;9.80;100.00;99596.22;7396071;19;19918;-81
2023/10/31 04:51:57;;;;;;;4.10;1.90;;;;;;;9.79;100.00;99598.09;7393194;19;19915;-81
2023/10/31 04:54:25;;;;;;;2.80;1.80;;;;;;;9.77;100.00;99597.47;7393817;19;19919;-81
2023/10/31 04:56:56;;;;;;;2.20;1.48;;;;;;;9.79;100.00;99621.47;7393597;19;19926;-81
2023/10/31 04:59:25;;;;;;;2.53;1.13;;;;;;;9.78;100.00;99620.66;7394808;19;19935;-81
2023/10/31 05:01:55;;;;;;;2.40;1.25;;;;;;;9.80;100.00;99620.44;7395514;19;19929;-81
2023/10/31 05:04:23;;;;;;;2.00;1.13;;;;;;;9.80;100.00;99617.72;7395657;19;19926;-80
2023/10/31 05:06:52;;;;;;;3.70;1.02;;;;;;;9.80;100.00;99621.25;7395749;19;20038;-82
2023/10/31 05:09:20;;;;;;;3.45;1.13;;;;;;;9.80;100.00;99628.50;7396427;19;19914;-81
2023/10/31 05:11:49;;;;;;;3.92;1.13;;;;;;;9.79;100.00;99635.75;7396754;19;19923;-81
2023/10/31 05:14:20;;;;;;;2.10;1.10;;;;;;;9.80;100.00;99644.63;7396508;19;19915;-81
2023/10/31 05:16:48;;;;;;;3.78;1.00;;;;;;;9.81;100.00;99649.00;7395955;19;19922;-81
2023/10/31 05:19:17;;;;;;;3.50;1.00;;;;;;;9.79;100.00;99643.81;7397386;19;19955;-80
2023/10/31 05:21:45;;;;;;;3.58;1.85;;;;;;;9.80;100.00;99644.63;7396920;19;19922;-81
2023/10/31 05:24:14;;;;;;;2.75;0.90;;;;;;;9.82;100.00;99656.03;7396662;19;19927;-80
2023/10/31 05:26:43;;;;;;;2.25;0.75;;;;;;;9.82;100.00;99650.66;7394733;19;19950;-80
2023/10/31 05:29:11;;;;;;;2.55;0.70;;;;;;;9.81;100.00;99657.06;7393459;19;20522;-80
2023/10/31 05:31:43;;;;;;;1.23;0.47;;;;;;;9.80;100.00;99652.69;7396289;19;19925;-81
2023/10/31 05:34:11;;;;;;;2.08;0.43;;;;;;;9.79;100.00;99662.66;7394247;19;19936;-81
2023/10/31 05:36:40;;;;;;;0.80;0.50;;;;;;;9.79;100.00;99659.13;7392688;19;20300;-81
2023/10/31 05:39:09;;;;;;;2.67;0.55;;;;;;;9.78;100.00;99671.75;7393128;19;20331;-81
2023/10/31 05:41:38;;;;;;;2.15;0.63;;;;;;;9.77;100.00;99672.78;7392977;19;19934;-80
2023/10/31 05:44:07;;;;;;;0.70;0.50;;;;;;;9.75;100.00;99672.13;7392322;19;19919;-81
2023/10/31 05:46:42;;;;;;;2.63;0.50;;;;;;;9.74;100.00;99678.56;7392883;19;19946;-81
2023/10/31 05:49:11;;;;;;;1.55;0.47;;;;;;;9.74;100.00;99689.31;7396656;19;19922;-80
2023/10/31 05:51:40;;;;;;;1.50;0.40;;;;;;;9.73;100.00;99695.72;7392406;19;19918;-81
2023/10/31 05:54:10;;;;;;;1.33;0.28;;;;;;;9.72;100.00;99690.53;7392339;19;19915;-80
2023/10/31 05:56:39;;;;;;;0.88;0.22;;;;;;;9.70;100.00;99693.44;7393192;19;19953;-81
2023/10/31 05:59:07;;;;;;;2.88;0.40;;;;;;;9.71;100.00;99697.75;7389790;19;19919;-80
2023/10/31 06:01:36;;;;;;;0.60;0.50;;;;;;;9.71;100.00;99697.75;7391774;19;19969;-80
2023/10/31 06:04:07;;;;;;;3.17;0.60;;;;;;;9.72;100.00;99694.06;7399200;19;19923;-80
2023/10/31 06:06:39;;;;;;;1.30;0.38;;;;;;;9.72;100.00;99707.50;7398386;19;19918;-80
2023/10/31 06:09:08;;;;;;;0.80;0.30;;;;;;;9.73;100.00;99706.47;7399169;19;19922;-79
2023/10/31 06:11:37;;;;;;;2.42;0.30;;;;;;;9.75;100.00;99706.28;7388036;19;19922;-79
2023/10/31 06:14:05;;;;;;;1.48;0.25;;;;;;;9.77;100.00;99707.72;7395131;19;19922;-79
2023/10/31 06:16:34;;;;;;;2.65;0.93;;;;;;;9.79;100.00;99703.00;7394268;19;19926;-79
2023/10/31 06:19:02;;;;;;;2.78;0.30;;;;;;;9.78;100.00;99693.25;7396914;19;19962;-79
2023/10/31 06:21:34;;;;;;;0.20;0.20;;;;;;;9.80;100.00;99699.25;7397300;19;19953;-79
2023/10/31 06:24:02;;;;;;;2.33;0.30;;;;;;;9.81;100.00;99702.78;7398233;19;20355;-79
2023/10/31 06:26:31;;;;;;;0.50;0.20;;;;;;;9.80;100.00;99704.63;7399172;19;19934;-79
2023/10/31 06:28:59;;;;;;;2.38;0.40;;;;;;;9.80;100.00;99707.31;7398945;19;20677;-79
2023/10/31 06:31:28;;;;;;;2.35;0.30;;;;;;;9.79;100.00;99727.22;7396862;19;19927;-79
2023/10/31 06:33:56;;;;;;;1.15;0.30;;;;;;;9.79;100.00;99721.00;7396858;19;20050;-79
2023/10/31 06:36:25;;;;;;;1.05;0.40;;;;;;;9.79;100.00;99724.53;7398793;19;19926;-79
2023/10/31 06:38:56;;;;;;;0.68;0.20;;;;;;;9.80;100.00;99728.84;7396840;19;19989;-79
2023/10/31 06:41:24;;;;;;;0.20;0.10;;;;;;;9.79;100.00;99729.06;7396831;19;19953;-79
2023/10/31 06:43:50;;;;;;;1.15;0.60;;;;;;;9.81;100.00;99730.50;7396636;19;20477;-78
2023/10/31 06:46:20;;;;;;;1.48;0.40;;;;;;;9.82;100.00;99723.28;7397004;19;19938;-79
2023/10/31 06:48:48;;;;;;;1.67;0.30;;;;;;;9.82;100.00;99734.88;7396201;19;19930;-79
2023/10/31 06:51:17;;;;;;;0.77;0.40;;;;;;;9.85;100.00;99747.06;7397540;19;19922;-79
2023/10/31 06:53:45;;;;;;;0.57;0.30;;;;;;;9.85;100.00;99739.00;7397192;19;20344;-79
2023/10/31 06:56:16;;;;;;;1.98;0.47;;;;;;;9.85;100.00;99739.84;7397735;19;20248;-79
2023/10/31 06:58:45;;;;;;;0.22;0.22;;;;;;;9.86;100.00;99740.66;7397410;19;19918;-79
2023/10/31 07:01:13;;;;;;;0.65;0.25;;;;;;;9.85;100.00;99745.22;7396316;19;19969;-79
2023/10/31 07:03:42;;;;;;;3.03;0.35;;;;;;;9.86;100.00;99741.50;7393042;19;20338;-79
2023/10/31 07:06:11;;;;;;;1.90;0.35;;;;;;;9.87;100.00;99753.09;7390335;19;19922;-79
2023/10/31 07:08:39;;;;;;;0.88;0.30;;;;;;;9.87;100.00;99753.09;7396507;19;20579;-79
2023/10/31 07:11:08;;;;;;;1.48;0.20;;;;;;;9.88;100.00;99758.25;7396276;19;19930;-80
2023/10/31 07:13:39;;;;;;;0.68;0.40;;;;;;;9.90;100.00;99752.69;7392335;19;19927;-79
2023/10/31 07:16:09;;;;;;;1.40;0.50;;;;;;;9.90;100.00;99766.13;7395620;19;19930;-79
2023/10/31 07:18:37;;;;;;;0.90;0.50;;;;;;;9.91;100.00;99771.34;7395955;19;19922;-79
2023/10/31 07:21:07;;;;;;;0.95;0.50;;;;;;;9.91;100.00;99757.03;7395238;19;20274;-79
2023/10/31 07:23:36;;;;;;;1.67;0.90;;;;;;;9.91;100.00;99765.94;7396789;19;19922;-79
2023/10/31 07:26:06;;;;;;;1.80;0.50;;;;;;;9.91;100.00;99787.47;7397186;19;19926;-80
2023/10/31 07:28:34;;;;;;;2.25;0.95;;;;;;;9.92;100.00;99764.91;7397438;19;20267;-79
2023/10/31 07:31:07;;;;;;;3.33;1.13;;;;;;;9.94;100.00;99778.16;7397169;19;19922;-79
2023/10/31 07:33:36;;;;;;;0.85;0.77;;;;;;;9.94;100.00;99770.91;7396291;19;19919;-80
2023/10/31 07:36:05;;;;;;;2.13;0.90;;;;;;;9.94;100.00;99776.31;7393579;19;19922;-80
2023/10/31 07:38:33;;;;;;;3.28;1.20;;;;;;;9.96;100.00;99790.41;7397188;19;19935;-80
2023/10/31 07:41:02;;;;;;;2.42;1.23;;;;;;;9.96;100.00;99774.25;7397096;19;19926;-80
2023/10/31 07:43:30;;;;;;;3.85;1.10;;;;;;;9.98;100.00;99782.09;7396908;19;20328;-79
2023/10/31 07:45:59;;;;;;;3.92;1.38;;;;;;;9.99;100.00;99778.41;7396765;19;19922;-80
2023/10/31 07:48:31;;;;;;;2.58;1.30;;;;;;;9.99;100.00;99773.84;7397078;19;19911;-79
2023/10/31 07:50:59;;;;;;;2.10;1.27;;;;;;;10.00;100.00;99777.38;7396034;19;19985;-79
2023/10/31 07:53:28;;;;;;;2.95;1.55;;;;;;;10.02;100.00;99783.38;7409433;19;19922;-80
2023/10/31 07:55:56;;;;;;;2.45;1.02;;;;;;;10.02;100.00;99773.44;7410226;19;19926;-80
2023/10/31 07:58:25;;;;;;;2.72;1.50;;;;;;;10.05;100.00;99777.59;7400580;19;20300;-80
2023/10/31 08:00:53;;;;;;;2.17;1.50;;;;;;;10.08;100.00;99776.38;7397740;19;19923;-79
2023/10/31 08:03:22;;;;;;;2.90;1.23;;;;;;;10.10;100.00;99782.38;7393514;19;19918;-80
2023/10/31 08:05:53;;;;;;;2.78;1.25;;;;;;;10.12;100.00;99780.31;7396421;19;19923;-80
2023/10/31 08:08:22;;;;;;;3.00;1.50;;;;;;;10.14;100.00;99786.34;7395214;19;20261;-80
2023/10/31 08:10:50;;;;;;;1.77;1.33;;;;;;;10.17;100.00;99791.34;7391456;19;20561;-79
2023/10/31 08:13:19;;;;;;;2.90;1.45;;;;;;;10.19;100.00;99782.03;7395555;19;20416;-79
2023/10/31 08:15:47;;;;;;;3.97;1.85;;;;;;;10.20;100.00;99778.31;7395127;19;20287;-80
2023/10/31 08:18:16;;;;;;;3.85;1.95;;;;;;;10.24;100.00;99792.19;7392711;19;19951;-80
2023/10/31 08:20:48;;;;;;;6.30;2.10;;;;;;;10.27;100.00;99791.78;7394636;19;19929;-80
2023/10/31 08:23:20;;;;;;;3.40;2.13;;;;;;;10.31;100.00;99785.00;7394315;19;19922;-80
2023/10/31 08:25:48;;;;;;;4.55;2.55;;;;;;;10.34;100.00;99795.34;7392536;19;19931;-80
2023/10/31 08:28:17;;;;;;;8.82;2.22;;;;;;;10.36;100.00;99798.66;7384122;19;19936;-82
2023/10/31 08:30:46;;;;;;;2.40;1.92;;;;;;;10.37;100.00;99798.47;7390301;19;19939;-79
2023/10/31 08:33:15;;;;;;;5.53;2.25;;;;;;;10.38;100.00;99800.13;7346969;19;22532;-80
2023/10/31 08:35:44;;;;;;;3.67;1.75;;;;;;;10.41;100.00;99796.19;7371817;19;19975;-79
2023/10/31 08:38:13;;;;;;;4.65;1.60;;;;;;;10.41;100.00;99804.25;7363956;19;19918;-79
2023/10/31 08:40:44;;;;;;;2.90;1.20;;;;;;;10.43;100.00;99800.34;7371614;19;19923;-79
2023/10/31 08:43:10;;;;;;;1.60;1.00;;;;;;;10.45;100.00;99810.91;7379576;19;19927;-80
2023/10/31 08:45:39;;;;;;;4.32;1.00;;;;;;;10.48;100.00;99809.69;7382698;19;20276;-80
2023/10/31 08:48:09;;;;;;;1.77;0.80;;;;;;;10.50;100.00;99816.53;7376581;19;19930;-80
2023/10/31 08:50:38;;;;;;;1.27;0.80;;;;;;;10.54;100.00;99820.47;7371923;19;19943;-81
2023/10/31 08:53:07;;;;;;;3.90;1.55;;;;;;;10.56;100.00;99828.34;7374376;19;20462;-78
2023/10/31 08:55:36;;;;;;;2.67;0.73;;;;;;;10.61;100.00;99823.19;7375818;19;19930;-79
2023/10/31 08:58:07;;;;;;;3.97;0.80;;;;;;;10.66;100.00;99823.41;7382084;19;19918;-80
2023/10/31 09:00:36;;;;;;;1.90;0.40;;;;;;;10.69;100.00;99840.00;7387042;19;19922;-80
2023/10/31 09:03:05;;;;;;;1.20;0.50;;;;;;;10.76;100.00;99831.94;7384242;19;20260;-80
2023/10/31 09:05:33;;;;;;;1.70;0.40;;;;;;;10.80;100.00;99838.56;7384644;19;19942;-80
2023/10/31 09:08:02;;;;;;;0.85;0.28;;;;;;;10.81;100.00;99848.31;7383239;19;19926;-80
2023/10/31 09:10:30;;;;;;;2.80;0.50;;;;;;;10.81;100.00;99841.06;7380502;19;19927;-80
2023/10/31 09:12:59;;;;;;;5.68;0.80;;;;;;;10.82;100.00;99840.03;7385623;19;21317;-80
2023/10/31 09:15:30;;;;;;;3.63;0.60;;;;;;;10.84;100.00;99837.13;7386714;19;20237;-81
2023/10/31 09:17:58;;;;;;;5.35;0.93;;;;;;;10.91;100.00;99838.00;7358513;19;19926;-80
2023/10/31 09:20:27;;;;;;;2.88;0.60;;;;;;;10.98;100.00;99851.47;7395338;19;19926;-80
2023/10/31 09:22:56;;;;;;;1.38;0.20;;;;;;;11.06;100.00;99848.56;7376900;19;19918;-80
2023/10/31 09:25:24;;;;;;;2.85;0.40;;;;;;;11.12;100.00;99853.16;7384434;19;19935;-80
2023/10/31 09:27:53;;;;;;;0.80;0.30;;;;;;;11.14;100.00;99859.97;7377550;19;19930;-80
2023/10/31 09:30:22;;;;;;;1.45;0.40;;;;;;;11.18;100.00;99881.97;7382832;19;19926;-80
2023/10/31 09:32:53;;;;;;;2.90;0.40;;;;;;;11.20;100.00;99874.50;7384350;19;20336;-80
2023/10/31 09:35:21;;;;;;;4.05;0.93;;;;;;;11.22;100.00;99877.81;7391125;19;19927;-80
2023/10/31 09:37:51;;;;;;;1.20;0.30;;;;;;;11.21;100.00;99877.00;7390177;19;19926;-79
2023/10/31 09:40:20;;;;;;;2.83;0.80;;;;;;;11.19;100.00;99905.19;7394524;19;20369;-79
2023/10/31 09:42:49;;;;;;;3.55;0.60;;;;;;;11.16;100.00;99916.41;7392028;19;19926;-80
2023/10/31 09:45:18;;;;;;;4.55;0.60;;;;;;;11.11;100.00;99916.19;7390688;19;20645;-79
2023/10/31 09:47:46;;;;;;;2.80;0.28;;;;;;;11.07;100.00;99921.16;7394035;19;19926;-80
2023/10/31 09:50:18;;;;;;;5.38;0.70;;;;;;;11.01;100.00;99923.81;7395572;19;19927;-81
2023/10/31 09:52:48;;;;;;;;;;;;;;;10.77;100.00;99928.72;7394799;19;19925;-79
2023/10/31 09:55:17;;;;;;;5.50;0.40;;;;;;;10.81;100.00;99946.13;7395538;19;20557;-80
2023/10/31 09:57:45;;;;;;;2.70;0.55;;;;;;;10.80;100.00;99960.63;7387135;19;19946;-79
2023/10/31 10:00:15;;;;;;;4.75;0.30;;;;;;;10.79;100.00;99974.28;7397791;19;19953;-80
2023/10/31 10:02:43;;;;;;;4.93;0.50;;;;;;;10.76;100.00;99977.41;7391755;19;19926;-79
2023/10/31 10:05:12;;;;;;;4.40;0.50;;;;;;;10.76;100.00;99974.72;7391073;19;19923;-80
2023/10/31 10:07:44;;;;;;;2.75;0.40;;;;;;;10.75;100.00;99987.34;7395762;19;19919;-80
2023/10/31 10:10:13;;;;;;;2.70;0.60;;;;;;;10.72;100.00;100005.78;7398375;19;20554;-80
2023/10/31 10:12:46;;;;;;;3.00;0.50;;;;;;;10.74;100.00;100014.50;7396742;19;19963;-80
2023/10/31 10:15:14;;;;;;;4.00;0.40;;;;;;;10.73;100.00;100023.59;7395359;19;19918;-80
2023/10/31 10:17:53;;;;;;;6.80;1.83;;;;;;;10.73;100.00;100023.59;7395422;19;19967;-80
2023/10/31 10:20:22;;;;;;;3.30;0.40;;;;;;;10.76;100.00;100040.19;7391721;19;19919;-80
2023/10/31 10:22:54;;;;;;;2.30;0.50;;;;;;;10.78;100.00;100022.00;7390430;19;20454;-77
2023/10/31 10:25:22;;;;;;;4.10;0.60;;;;;;;10.81;100.00;100043.13;7397210;19;19958;-81
2023/10/31 10:27:51;;;;;;;1.55;0.30;;;;;;;10.96;100.00;100042.19;7397630;19;19919;-80
2023/10/31 10:30:19;;;;;;;5.57;0.20;;;;;;;11.08;99.16;100044.09;7397546;19;19930;-80
2023/10/31 10:32:48;;;;;;;2.67;0.43;;;;;;;11.18;99.31;100041.84;7396972;19;19920;-80
2023/10/31 10:35:16;;;;;;;1.95;0.35;;;;;;;11.33;98.23;100049.81;7393528;19;19933;-79
2023/10/31 10:37:47;;;;;;;6.30;1.08;;;;;;;11.47;98.01;100054.22;7394582;19;19910;-79
2023/10/31 10:40:19;;;;;;;2.97;0.47;;;;;;;11.56;96.38;100046.78;7398453;19;20377;-80
2023/10/31 10:42:49;;;;;;;3.25;0.22;;;;;;;11.54;95.93;100055.06;7396204;19;19922;-80
2023/10/31 10:45:20;;;;;;;4.72;0.20;;;;;;;11.48;95.53;100055.03;7393032;19;19946;-77
2023/10/31 10:47:52;;;;;;;1.25;0.20;;;;;;;11.54;95.82;100063.16;7394204;19;19923;-79
2023/10/31 10:50:28;;;;;;;1.20;0.30;;;;;;;11.60;95.49;100065.03;7387695;19;19943;-74
2023/10/31 10:53:10;;;;;;;1.67;0.30;;;;;;;11.69;95.68;100079.97;7386741;19;20549;-75
2023/10/31 10:55:47;;;;;;;1.42;0.40;;;;;;;11.88;91.48;100077.56;7391614;19;19926;-74
2023/10/31 10:58:25;;;;;;;0.88;0.17;;;;;;;12.04;90.64;100080.72;7393058;19;19919;-74
2023/10/31 11:00:54;;;;;;;4.45;0.40;;;;;;;12.10;92.39;100081.78;7381714;19;19969;-73
2023/10/31 11:03:24;;;;;;;0.80;0.52;;;;;;;12.14;93.58;100089.25;7387424;19;19922;-73
2023/10/31 11:05:53;;;;;;;2.58;0.60;;;;;;;12.18;91.05;100095.91;7390316;19;19923;-74
2023/10/31 11:08:23;;;;;;;2.63;0.40;;;;;;;12.03;91.79;100103.38;7390037;19;19931;-71
2023/10/31 11:10:55;;;;;;;1.58;0.30;;;;;;;12.02;89.83;100103.56;7384481;19;19934;-71
2023/10/31 11:13:25;;;;;;;2.33;0.93;;;;;;;12.11;89.61;100102.34;7381139;19;20356;-72
2023/10/31 11:15:59;;;;;;;3.65;0.90;;;;;;;12.31;90.40;100105.03;7385509;19;20347;-72
2023/10/31 11:18:29;;;;;;;2.38;0.25;;;;;;;12.53;90.46;100107.34;7393147;19;19934;-72
2023/10/31 11:20:57;;;;;;;1.73;0.30;;;;;;;12.74;88.88;100122.50;7371391;19;19930;-72
2023/10/31 11:23:26;;;;;;;2.05;0.47;;;;;;;12.93;88.90;100118.97;7387779;19;20018;-72
2023/10/31 11:25:58;;;;;;;2.20;0.30;;;;;;;12.84;87.07;100125.63;7385339;19;19918;-72
2023/10/31 11:28:27;;;;;;;1.45;0.20;;;;;;;12.78;88.35;100126.44;7378736;19;19922;-72
2023/10/31 11:31:00;;;;;;;4.28;0.95;;;;;;;12.73;86.54;100132.47;7364447;19;20379;-72
2023/10/31 11:33:29;;;;;;;3.72;0.70;;;;;;;12.62;88.31;100135.00;7375925;19;19914;-72
2023/10/31 11:36:03;;;;;;;2.25;0.20;;;;;;;12.61;88.60;100136.03;7382101;19;19929;-72
2023/10/31 11:38:35;;;;;;;1.95;0.20;;;;;;;12.48;87.67;100142.25;7395888;19;19919;-72